sensor_id;sensor_type;location;lat;lon;timestamp;pressure;altitude;pressure_sealevel;temperature;humidity
49461;BME280;35355;49.198;-0.368;2023-07-13T00:01:44;101187.69;;;19.11;58.00
49461;BME280;35355;49.198;-0.368;2023-07-13T00:04:11;101197.16;;;19.10;58.17
49461;BME280;35355;49.198;-0.368;2023-07-13T00:06:37;101202.16;;;19.08;58.29
49461;BME280;35355;49.198;-0.368;2023-07-13T00:09:02;101196.75;;;19.03;58.34
49461;BME280;35355;49.198;-0.368;2023-07-13T00:11:28;101201.25;;;18.99;58.47
49461;BME280;35355;49.198;-0.368;2023-07-13T00:13:53;101193.34;;;18.92;58.68
49461;BME280;35355;49.198;-0.368;2023-07-13T00:16:19;101191.41;;;18.93;58.87
49461;BME280;35355;49.198;-0.368;2023-07-13T00:18:46;101185.03;;;18.92;58.94
49461;BME280;35355;49.198;-0.368;2023-07-13T00:21:12;101197.97;;;18.97;58.88
49461;BME280;35355;49.198;-0.368;2023-07-13T00:23:39;101199.41;;;18.95;58.72
49461;BME280;35355;49.198;-0.368;2023-07-13T00:26:07;101190.88;;;18.91;58.99
49461;BME280;35355;49.198;-0.368;2023-07-13T00:28:33;101186.81;;;18.88;58.95
49461;BME280;35355;49.198;-0.368;2023-07-13T00:31:00;101186.56;;;18.85;59.12
49461;BME280;35355;49.198;-0.368;2023-07-13T00:33:27;101200.94;;;18.87;59.12
49461;BME280;35355;49.198;-0.368;2023-07-13T00:35:54;101199.78;;;18.88;59.10
49461;BME280;35355;49.198;-0.368;2023-07-13T00:38:19;101197.88;;;18.88;59.24
49461;BME280;35355;49.198;-0.368;2023-07-13T00:40:44;101203.91;;;18.90;59.27
49461;BME280;35355;49.198;-0.368;2023-07-13T00:43:15;101192.03;;;18.90;59.08
49461;BME280;35355;49.198;-0.368;2023-07-13T00:48:34;101194.50;;;18.91;59.02
49461;BME280;35355;49.198;-0.368;2023-07-13T00:51:00;101189.47;;;18.93;59.37
49461;BME280;35355;49.198;-0.368;2023-07-13T00:53:27;101185.88;;;18.93;59.33
49461;BME280;35355;49.198;-0.368;2023-07-13T00:55:55;101191.41;;;18.93;59.39
49461;BME280;35355;49.198;-0.368;2023-07-13T00:58:22;101184.13;;;18.97;59.58
49461;BME280;35355;49.198;-0.368;2023-07-13T01:00:48;101192.94;;;18.99;59.35
49461;BME280;35355;49.198;-0.368;2023-07-13T01:03:15;101188.22;;;19.00;59.39
49461;BME280;35355;49.198;-0.368;2023-07-13T01:05:40;101186.59;;;18.99;59.60
49461;BME280;35355;49.198;-0.368;2023-07-13T01:08:06;101194.91;;;18.99;59.65
49461;BME280;35355;49.198;-0.368;2023-07-13T01:10:32;101189.69;;;18.97;59.61
49461;BME280;35355;49.198;-0.368;2023-07-13T01:13:10;101191.59;;;18.97;59.54
49461;BME280;35355;49.198;-0.368;2023-07-13T01:15:42;101194.69;;;18.95;59.49
49461;BME280;35355;49.198;-0.368;2023-07-13T01:18:11;101193.03;;;18.94;59.63
49461;BME280;35355;49.198;-0.368;2023-07-13T01:20:37;101205.75;;;18.95;60.03
49461;BME280;35355;49.198;-0.368;2023-07-13T01:23:05;101200.22;;;18.95;59.94
49461;BME280;35355;49.198;-0.368;2023-07-13T01:25:31;101196.31;;;18.96;60.23
49461;BME280;35355;49.198;-0.368;2023-07-13T01:27:57;101199.59;;;18.98;60.36
49461;BME280;35355;49.198;-0.368;2023-07-13T01:30:22;101194.28;;;19.02;60.26
49461;BME280;35355;49.198;-0.368;2023-07-13T01:32:47;101198.34;;;19.04;60.33
49461;BME280;35355;49.198;-0.368;2023-07-13T01:35:13;101186.97;;;19.06;60.33
49461;BME280;35355;49.198;-0.368;2023-07-13T01:37:38;101184.53;;;19.04;60.26
49461;BME280;35355;49.198;-0.368;2023-07-13T01:40:04;101198.56;;;19.08;60.34
49461;BME280;35355;49.198;-0.368;2023-07-13T01:42:30;101203.50;;;19.11;60.50
49461;BME280;35355;49.198;-0.368;2023-07-13T01:44:55;101197.16;;;19.10;60.38
49461;BME280;35355;49.198;-0.368;2023-07-13T01:47:22;101204.00;;;19.13;60.29
49461;BME280;35355;49.198;-0.368;2023-07-13T01:49:48;101202.06;;;19.14;60.55
49461;BME280;35355;49.198;-0.368;2023-07-13T01:52:15;101204.22;;;19.17;60.15
49461;BME280;35355;49.198;-0.368;2023-07-13T01:54:40;101198.38;;;19.18;60.85
49461;BME280;35355;49.198;-0.368;2023-07-13T01:57:05;101197.75;;;19.21;60.53
49461;BME280;35355;49.198;-0.368;2023-07-13T01:59:31;101198.25;;;19.23;60.57
49461;BME280;35355;49.198;-0.368;2023-07-13T02:01:58;101201.84;;;19.24;60.58
49461;BME280;35355;49.198;-0.368;2023-07-13T02:04:23;101195.69;;;19.27;60.72
49461;BME280;35355;49.198;-0.368;2023-07-13T02:06:49;101193.41;;;19.29;60.59
49461;BME280;35355;49.198;-0.368;2023-07-13T02:09:14;101201.22;;;19.27;60.59
49461;BME280;35355;49.198;-0.368;2023-07-13T02:11:39;101198.47;;;19.27;60.80
49461;BME280;35355;49.198;-0.368;2023-07-13T02:14:05;101201.22;;;19.27;60.81
49461;BME280;35355;49.198;-0.368;2023-07-13T02:16:30;101201.22;;;19.27;60.84
49461;BME280;35355;49.198;-0.368;2023-07-13T02:18:56;101196.50;;;19.27;60.86
49461;BME280;35355;49.198;-0.368;2023-07-13T02:21:22;101195.69;;;19.27;60.81
49461;BME280;35355;49.198;-0.368;2023-07-13T02:23:48;101203.16;;;19.26;60.99
49461;BME280;35355;49.198;-0.368;2023-07-13T02:26:14;101201.22;;;19.27;61.00
49461;BME280;35355;49.198;-0.368;2023-07-13T02:28:39;101200.06;;;19.28;61.05
49461;BME280;35355;49.198;-0.368;2023-07-13T02:31:07;101198.97;;;19.29;60.96
49461;BME280;35355;49.198;-0.368;2023-07-13T02:33:33;101193.41;;;19.29;60.94
49461;BME280;35355;49.198;-0.368;2023-07-13T02:35:58;101194.53;;;19.28;61.12
49461;BME280;35355;49.198;-0.368;2023-07-13T02:38:24;101188.31;;;19.22;61.16
49461;BME280;35355;49.198;-0.368;2023-07-13T02:40:49;101188.72;;;19.30;61.00
49461;BME280;35355;49.198;-0.368;2023-07-13T02:43:14;101186.75;;;19.30;60.96
49461;BME280;35355;49.198;-0.368;2023-07-13T02:45:43;101186.47;;;19.32;60.99
49461;BME280;35355;49.198;-0.368;2023-07-13T02:48:09;101194.94;;;19.35;61.17
49461;BME280;35355;49.198;-0.368;2023-07-13T02:50:34;101196.59;;;19.36;61.04
49461;BME280;35355;49.198;-0.368;2023-07-13T02:52:59;101199.19;;;19.33;61.20
49461;BME280;35355;49.198;-0.368;2023-07-13T02:55:25;101204.72;;;19.33;61.32
49461;BME280;35355;49.198;-0.368;2023-07-13T02:57:50;101206.94;;;19.31;61.46
49461;BME280;35355;49.198;-0.368;2023-07-13T03:00:16;101204.81;;;19.27;61.65
49461;BME280;35355;49.198;-0.368;2023-07-13T03:02:41;101201.22;;;19.27;61.69
49461;BME280;35355;49.198;-0.368;2023-07-13T03:05:07;101203.69;;;19.28;61.67
49461;BME280;35355;49.198;-0.368;2023-07-13T03:07:33;101198.97;;;19.29;61.78
49461;BME280;35355;49.198;-0.368;2023-07-13T03:09:58;101201.09;;;19.32;61.74
49461;BME280;35355;49.198;-0.368;2023-07-13T03:12:24;101203.25;;;19.35;61.64
49461;BME280;35355;49.198;-0.368;2023-07-13T03:14:50;101190.56;;;19.34;61.80
49461;BME280;35355;49.198;-0.368;2023-07-13T03:17:16;101204.91;;;19.36;61.75
49461;BME280;35355;49.198;-0.368;2023-07-13T03:19:41;101186.63;;;19.35;61.85
49461;BME280;35355;49.198;-0.368;2023-07-13T03:22:07;101198.56;;;19.36;61.92
49461;BME280;35355;49.198;-0.368;2023-07-13T03:24:33;101195.78;;;19.36;61.94
49461;BME280;35355;49.198;-0.368;2023-07-13T03:27:01;101195.47;;;19.37;61.90
49461;BME280;35355;49.198;-0.368;2023-07-13T03:29:27;101210.44;;;19.36;62.46
49461;BME280;35355;49.198;-0.368;2023-07-13T03:31:52;101204.91;;;19.36;62.00
49461;BME280;35355;49.198;-0.368;2023-07-13T03:34:18;101205.22;;;19.35;62.16
49461;BME280;35355;49.198;-0.368;2023-07-13T03:36:43;101204.09;;;19.36;62.16
49461;BME280;35355;49.198;-0.368;2023-07-13T03:39:08;101195.78;;;19.36;62.27
49461;BME280;35355;49.198;-0.368;2023-07-13T03:41:34;101206.00;;;19.35;62.19
49461;BME280;35355;49.198;-0.368;2023-07-13T03:43:59;101209.00;;;19.39;62.23
49461;BME280;35355;49.198;-0.368;2023-07-13T03:46:25;101206.53;;;19.37;62.25
49461;BME280;35355;49.198;-0.368;2023-07-13T03:48:51;101207.97;;;19.35;62.29
49461;BME280;35355;49.198;-0.368;2023-07-13T03:51:17;101203.56;;;19.34;62.39
49461;BME280;35355;49.198;-0.368;2023-07-13T03:53:44;101201.63;;;19.34;62.45
49461;BME280;35355;49.198;-0.368;2023-07-13T03:56:10;101199.97;;;19.33;62.29
49461;BME280;35355;49.198;-0.368;2023-07-13T03:58:39;101199.97;;;19.33;62.07
49461;BME280;35355;49.198;-0.368;2023-07-13T04:01:07;101209.09;;;19.34;62.40
49461;BME280;35355;49.198;-0.368;2023-07-13T04:03:34;101214.63;;;19.34;62.39
49461;BME280;35355;49.198;-0.368;2023-07-13T04:06:02;101205.13;;;19.26;62.31
49461;BME280;35355;49.198;-0.368;2023-07-13T04:08:29;101207.88;;;19.26;62.47
49461;BME280;35355;49.198;-0.368;2023-07-13T04:10:55;101213.53;;;19.21;62.56
49461;BME280;35355;49.198;-0.368;2023-07-13T04:13:22;101211.28;;;19.23;62.84
49461;BME280;35355;49.198;-0.368;2023-07-13T04:15:47;101215.16;;;19.22;62.82
49461;BME280;35355;49.198;-0.368;2023-07-13T04:18:13;101212.91;;;19.24;62.80
49461;BME280;35355;49.198;-0.368;2023-07-13T04:20:38;101218.44;;;19.24;62.64
49461;BME280;35355;49.198;-0.368;2023-07-13T04:23:04;101224.00;;;19.24;62.85
49461;BME280;35355;49.198;-0.368;2023-07-13T04:25:32;101216.00;;;19.22;62.72
49461;BME280;35355;49.198;-0.368;2023-07-13T04:27:58;101220.69;;;19.22;62.68
49461;BME280;35355;49.198;-0.368;2023-07-13T04:30:23;101228.91;;;19.27;62.59
49461;BME280;35355;49.198;-0.368;2023-07-13T04:32:52;101233.28;;;19.28;62.36
49461;BME280;35355;49.198;-0.368;2023-07-13T04:35:19;101233.28;;;19.28;62.44
49461;BME280;35355;49.198;-0.368;2023-07-13T04:37:49;101231.97;;;19.25;62.57
49461;BME280;35355;49.198;-0.368;2023-07-13T04:40:17;101235.88;;;19.24;62.52
49461;BME280;35355;49.198;-0.368;2023-07-13T04:42:43;101236.06;;;19.28;62.55
49461;BME280;35355;49.198;-0.368;2023-07-13T04:45:09;101239.03;;;19.32;62.54
49461;BME280;35355;49.198;-0.368;2023-07-13T04:47:34;101243.47;;;19.33;62.36
49461;BME280;35355;49.198;-0.368;2023-07-13T04:50:00;101248.16;;;19.32;62.51
49461;BME280;35355;49.198;-0.368;2023-07-13T04:52:25;101251.16;;;19.36;62.58
49461;BME280;35355;49.198;-0.368;2023-07-13T04:54:51;101256.38;;;19.37;62.46
49461;BME280;35355;49.198;-0.368;2023-07-13T04:57:16;101257.19;;;19.38;62.55
49461;BME280;35355;49.198;-0.368;2023-07-13T04:59:45;101249.19;;;19.36;62.35
49461;BME280;35355;49.198;-0.368;2023-07-13T05:02:11;101254.09;;;19.39;62.54
49461;BME280;35355;49.198;-0.368;2023-07-13T05:04:36;101254.72;;;19.36;62.56
49461;BME280;35355;49.198;-0.368;2023-07-13T05:07:02;101245.38;;;19.32;62.66
49461;BME280;35355;49.198;-0.368;2023-07-13T05:09:27;101256.38;;;19.37;62.71
49461;BME280;35355;49.198;-0.368;2023-07-13T05:11:53;101247.75;;;19.39;62.73
49461;BME280;35355;49.198;-0.368;2023-07-13T05:14:18;101255.44;;;19.42;62.76
49461;BME280;35355;49.198;-0.368;2023-07-13T05:16:43;101257.41;;;19.41;62.72
49461;BME280;35355;49.198;-0.368;2023-07-13T05:19:09;101259.00;;;19.42;62.63
49461;BME280;35355;49.198;-0.368;2023-07-13T05:21:35;101265.41;;;19.43;62.59
49461;BME280;35355;49.198;-0.368;2023-07-13T05:24:00;101274.00;;;19.41;62.59
49461;BME280;35355;49.198;-0.368;2023-07-13T05:26:26;101268.25;;;19.38;62.75
49461;BME280;35355;49.198;-0.368;2023-07-13T05:28:54;101264.16;;;19.35;62.59
49461;BME280;35355;49.198;-0.368;2023-07-13T05:31:20;101265.97;;;19.40;62.94
49461;BME280;35355;49.198;-0.368;2023-07-13T05:33:45;101263.53;;;19.38;62.81
49461;BME280;35355;49.198;-0.368;2023-07-13T05:36:11;101270.09;;;19.42;62.88
49461;BME280;35355;49.198;-0.368;2023-07-13T05:38:36;101260.84;;;19.47;62.80
49461;BME280;35355;49.198;-0.368;2023-07-13T05:41:01;101266.38;;;19.47;62.63
49461;BME280;35355;49.198;-0.368;2023-07-13T05:43:27;101263.84;;;19.51;62.69
49461;BME280;35355;49.198;-0.368;2023-07-13T05:45:56;101262.72;;;19.52;62.54
49461;BME280;35355;49.198;-0.368;2023-07-13T05:48:22;101258.81;;;19.53;62.63
49461;BME280;35355;49.198;-0.368;2023-07-13T05:50:47;101268.75;;;19.54;62.50
49461;BME280;35355;49.198;-0.368;2023-07-13T05:53:13;101262.09;;;19.55;62.53
49461;BME280;35355;49.198;-0.368;2023-07-13T05:55:42;101254.41;;;19.52;62.50
49461;BME280;35355;49.198;-0.368;2023-07-13T05:58:09;101261.47;;;19.58;62.53
49461;BME280;35355;49.198;-0.368;2023-07-13T06:00:35;101267.50;;;19.60;62.53
49461;BME280;35355;49.198;-0.368;2023-07-13T06:03:00;101268.13;;;19.57;62.87
49461;BME280;35355;49.198;-0.368;2023-07-13T06:05:26;101273.66;;;19.57;62.72
49461;BME280;35355;49.198;-0.368;2023-07-13T06:07:54;101270.28;;;19.60;62.56
49461;BME280;35355;49.198;-0.368;2023-07-13T06:10:20;101276.03;;;19.63;62.56
49461;BME280;35355;49.198;-0.368;2023-07-13T06:12:45;101287.91;;;19.64;62.55
49461;BME280;35355;49.198;-0.368;2023-07-13T06:15:11;101283.19;;;19.64;62.54
49461;BME280;35355;49.198;-0.368;2023-07-13T06:17:36;101291.19;;;19.66;62.49
49461;BME280;35355;49.198;-0.368;2023-07-13T06:20:02;101297.75;;;19.70;62.64
49461;BME280;35355;49.198;-0.368;2023-07-13T06:22:27;101301.88;;;19.73;62.66
49461;BME280;35355;49.198;-0.368;2023-07-13T06:24:56;101295.47;;;19.72;62.27
49461;BME280;35355;49.198;-0.368;2023-07-13T06:27:21;101298.78;;;19.74;62.54
49461;BME280;35355;49.198;-0.368;2023-07-13T06:29:47;101298.56;;;19.71;62.66
49461;BME280;35355;49.198;-0.368;2023-07-13T06:32:12;101301.66;;;19.69;62.64
49461;BME280;35355;49.198;-0.368;2023-07-13T06:34:37;101307.72;;;19.71;62.89
49461;BME280;35355;49.198;-0.368;2023-07-13T06:37:08;101310.47;;;19.71;62.62
49461;BME280;35355;49.198;-0.368;2023-07-13T06:39:33;101319.28;;;19.73;62.55
49461;BME280;35355;49.198;-0.368;2023-07-13T06:41:59;101315.72;;;19.73;62.87
49461;BME280;35355;49.198;-0.368;2023-07-13T06:44:24;101315.41;;;19.74;62.70
49461;BME280;35355;49.198;-0.368;2023-07-13T06:46:50;101320.13;;;19.74;62.90
49461;BME280;35355;49.198;-0.368;2023-07-13T06:49:15;101332.00;;;19.74;62.86
49461;BME280;35355;49.198;-0.368;2023-07-13T06:51:41;101331.00;;;19.70;62.68
49461;BME280;35355;49.198;-0.368;2023-07-13T06:54:09;101329.03;;;19.71;63.06
49461;BME280;35355;49.198;-0.368;2023-07-13T06:56:34;101337.34;;;19.71;63.22
49461;BME280;35355;49.198;-0.368;2023-07-13T06:59:00;101347.00;;;19.73;63.01
49461;BME280;35355;49.198;-0.368;2023-07-13T07:01:28;101347.59;;;19.70;62.87
49461;BME280;35355;49.198;-0.368;2023-07-13T07:03:54;101353.16;;;19.70;62.67
49461;BME280;35355;49.198;-0.368;2023-07-13T07:06:21;101355.91;;;19.70;63.15
49461;BME280;35355;49.198;-0.368;2023-07-13T07:08:55;101352.34;;;19.70;63.26
49461;BME280;35355;49.198;-0.368;2023-07-13T07:11:23;101351.50;;;19.69;63.26
49461;BME280;35355;49.198;-0.368;2023-07-13T07:13:50;101362.16;;;19.76;63.28
49461;BME280;35355;49.198;-0.368;2023-07-13T07:16:16;101366.31;;;19.78;63.34
49461;BME280;35355;49.198;-0.368;2023-07-13T07:18:45;101366.31;;;19.78;63.12
49461;BME280;35355;49.198;-0.368;2023-07-13T07:21:13;101381.16;;;19.83;63.23
49461;BME280;35355;49.198;-0.368;2023-07-13T07:23:39;101369.09;;;19.78;63.31
49461;BME280;35355;49.198;-0.368;2023-07-13T07:26:05;101377.91;;;19.80;63.34
49461;BME280;35355;49.198;-0.368;2023-07-13T07:28:30;101383.13;;;19.82;63.02
49461;BME280;35355;49.198;-0.368;2023-07-13T07:30:57;101390.81;;;19.85;63.13
49461;BME280;35355;49.198;-0.368;2023-07-13T07:33:23;101388.88;;;19.86;62.78
49461;BME280;35355;49.198;-0.368;2023-07-13T07:35:49;101383.94;;;19.83;63.09
49461;BME280;35355;49.198;-0.368;2023-07-13T07:38:15;101388.34;;;19.84;63.21
49461;BME280;35355;49.198;-0.368;2023-07-13T07:40:44;101393.59;;;19.85;63.08
49461;BME280;35355;49.198;-0.368;2023-07-13T07:43:11;101394.19;;;19.82;62.95
49461;BME280;35355;49.198;-0.368;2023-07-13T07:45:38;101386.50;;;19.79;62.93
49461;BME280;35355;49.198;-0.368;2023-07-13T07:48:04;101407.75;;;19.84;63.07
49461;BME280;35355;49.198;-0.368;2023-07-13T07:50:36;101400.56;;;19.83;62.58
49461;BME280;35355;49.198;-0.368;2023-07-13T07:53:04;101399.97;;;19.86;63.00
49461;BME280;35355;49.198;-0.368;2023-07-13T07:55:33;101406.00;;;19.88;62.91
49461;BME280;35355;49.198;-0.368;2023-07-13T07:58:02;101401.59;;;19.87;62.56
49461;BME280;35355;49.198;-0.368;2023-07-13T08:00:28;101412.34;;;19.88;62.50
49461;BME280;35355;49.198;-0.368;2023-07-13T08:02:57;101403.84;;;19.85;62.33
49461;BME280;35355;49.198;-0.368;2023-07-13T08:05:22;101412.16;;;19.85;62.29
49461;BME280;35355;49.198;-0.368;2023-07-13T08:07:48;101408.56;;;19.84;62.20
49461;BME280;35355;49.198;-0.368;2023-07-13T08:10:13;101410.81;;;19.82;61.90
49461;BME280;35355;49.198;-0.368;2023-07-13T08:12:39;101405.28;;;19.82;62.11
49461;BME280;35355;49.198;-0.368;2023-07-13T08:15:07;101416.59;;;19.86;62.38
49461;BME280;35355;49.198;-0.368;2023-07-13T08:17:34;101419.13;;;19.82;62.60
49461;BME280;35355;49.198;-0.368;2023-07-13T08:20:00;101408.94;;;19.77;62.94
49461;BME280;35355;49.198;-0.368;2023-07-13T08:22:26;101417.06;;;19.74;63.35
49461;BME280;35355;49.198;-0.368;2023-07-13T08:24:52;101411.81;;;19.72;63.67
49461;BME280;35355;49.198;-0.368;2023-07-13T08:27:22;101410.38;;;19.75;64.05
49461;BME280;35355;49.198;-0.368;2023-07-13T08:29:51;101405.69;;;19.75;64.13
49461;BME280;35355;49.198;-0.368;2023-07-13T08:32:21;101400.63;;;19.77;64.20
49461;BME280;35355;49.198;-0.368;2023-07-13T08:34:47;101398.94;;;19.82;64.33
49461;BME280;35355;49.198;-0.368;2023-07-13T08:37:13;101399.44;;;19.84;64.34
49461;BME280;35355;49.198;-0.368;2023-07-13T08:39:38;101408.56;;;19.84;64.27
49461;BME280;35355;49.198;-0.368;2023-07-13T08:42:13;101405.50;;;19.86;64.15
49461;BME280;35355;49.198;-0.368;2023-07-13T08:47:31;101408.56;;;19.98;64.46
49461;BME280;35355;49.198;-0.368;2023-07-13T08:50:02;101399.94;;;20.00;64.46
49461;BME280;35355;49.198;-0.368;2023-07-13T08:52:35;101391.13;;;19.97;64.33
49461;BME280;35355;49.198;-0.368;2023-07-13T08:55:13;101401.78;;;20.04;64.25
49461;BME280;35355;49.198;-0.368;2023-07-13T08:57:41;101397.88;;;20.05;64.37
49461;BME280;35355;49.198;-0.368;2023-07-13T09:00:11;101395.44;;;20.04;64.20
49461;BME280;35355;49.198;-0.368;2023-07-13T09:02:54;101403.44;;;20.05;63.89
49461;BME280;35355;49.198;-0.368;2023-07-13T09:05:31;101401.16;;;20.07;64.10
49461;BME280;35355;49.198;-0.368;2023-07-13T09:08:26;101405.34;;;20.05;63.94
49461;BME280;35355;49.198;-0.368;2023-07-13T09:11:19;101411.22;;;20.03;63.80
49461;BME280;35355;49.198;-0.368;2023-07-13T09:14:02;101402.41;;;20.01;63.89
49461;BME280;35355;49.198;-0.368;2023-07-13T09:16:33;101401.38;;;19.97;64.54
49461;BME280;35355;49.198;-0.368;2023-07-13T09:19:06;101404.75;;;19.94;64.73
49461;BME280;35355;49.198;-0.368;2023-07-13T09:21:36;101404.97;;;19.97;64.68
49461;BME280;35355;49.198;-0.368;2023-07-13T09:26:50;101412.88;;;20.04;65.15
49461;BME280;35355;49.198;-0.368;2023-07-13T09:29:24;101408.44;;;20.03;65.10
49461;BME280;35355;49.198;-0.368;2023-07-13T09:31:54;101418.31;;;20.09;65.03
49461;BME280;35355;49.198;-0.368;2023-07-13T09:34:20;101432.75;;;20.06;65.33
49461;BME280;35355;49.198;-0.368;2023-07-13T09:36:46;101437.00;;;20.04;65.14
49461;BME280;35355;49.198;-0.368;2023-07-13T09:39:33;101436.78;;;20.00;64.72
49461;BME280;35355;49.198;-0.368;2023-07-13T09:42:16;101424.56;;;20.01;65.01
49461;BME280;35355;49.198;-0.368;2023-07-13T09:44:57;101422.09;;;20.00;65.05
49461;BME280;35355;49.198;-0.368;2023-07-13T09:47:29;101426.00;;;19.98;65.48
49461;BME280;35355;49.198;-0.368;2023-07-13T09:50:00;101420.28;;;19.95;65.73
49461;BME280;35355;49.198;-0.368;2023-07-13T09:52:27;101419.66;;;19.98;66.31
49461;BME280;35355;49.198;-0.368;2023-07-13T09:54:54;101432.38;;;19.99;66.52
49461;BME280;35355;49.198;-0.368;2023-07-13T09:57:26;101425.38;;;20.02;66.89
49461;BME280;35355;49.198;-0.368;2023-07-13T09:59:54;101423.94;;;20.04;66.99
49461;BME280;35355;49.198;-0.368;2023-07-13T10:05:04;101419.44;;;20.08;66.56
49461;BME280;35355;49.198;-0.368;2023-07-13T10:07:31;101428.66;;;20.18;67.27
49461;BME280;35355;49.198;-0.368;2023-07-13T10:09:59;101426.59;;;20.23;67.28
49461;BME280;35355;49.198;-0.368;2023-07-13T10:12:35;101421.25;;;20.27;67.34
49461;BME280;35355;49.198;-0.368;2023-07-13T10:15:07;101423.91;;;20.32;67.40
49461;BME280;35355;49.198;-0.368;2023-07-13T10:17:39;101409.91;;;20.37;67.56
49461;BME280;35355;49.198;-0.368;2023-07-13T10:20:05;101417.50;;;20.45;68.06
49461;BME280;35355;49.198;-0.368;2023-07-13T10:22:52;101423.44;;;20.53;67.82
49461;BME280;35355;49.198;-0.368;2023-07-13T10:25:23;101430.19;;;20.60;67.79
49461;BME280;35355;49.198;-0.368;2023-07-13T10:27:52;101430.63;;;20.67;67.92
49461;BME280;35355;49.198;-0.368;2023-07-13T10:30:25;101430.69;;;20.76;67.61
49461;BME280;35355;49.198;-0.368;2023-07-13T10:32:53;101430.44;;;20.87;67.71
49461;BME280;35355;49.198;-0.368;2023-07-13T10:35:23;101419.72;;;20.94;67.67
49461;BME280;35355;49.198;-0.368;2023-07-13T10:37:53;101430.38;;;21.00;66.91
49461;BME280;35355;49.198;-0.368;2023-07-13T10:40:41;101418.41;;;20.91;66.55
49461;BME280;35355;49.198;-0.368;2023-07-13T10:43:31;101417.59;;;20.91;66.60
49461;BME280;35355;49.198;-0.368;2023-07-13T10:45:59;101430.50;;;20.95;66.78
49461;BME280;35355;49.198;-0.368;2023-07-13T10:48:26;101431.97;;;20.93;66.74
49461;BME280;35355;49.198;-0.368;2023-07-13T10:50:53;101440.09;;;20.89;66.75
49461;BME280;35355;49.198;-0.368;2023-07-13T10:53:27;101436.31;;;20.85;66.42
49461;BME280;35355;49.198;-0.368;2023-07-13T10:58:32;101431.31;;;20.73;66.19
49461;BME280;35355;49.198;-0.368;2023-07-13T11:01:16;101419.53;;;20.67;66.11
49461;BME280;35355;49.198;-0.368;2023-07-13T11:04:00;101407.06;;;20.65;65.99
49461;BME280;35355;49.198;-0.368;2023-07-13T11:08:58;101422.38;;;20.62;66.95
49461;BME280;35355;49.198;-0.368;2023-07-13T11:18:48;101419.28;;;20.78;67.28
49461;BME280;35355;49.198;-0.368;2023-07-13T11:21:19;101416.06;;;20.84;67.37
49461;BME280;35355;49.198;-0.368;2023-07-13T11:23:54;101426.22;;;20.89;67.08
49461;BME280;35355;49.198;-0.368;2023-07-13T11:26:57;101424.25;;;20.90;66.65
49461;BME280;35355;49.198;-0.368;2023-07-13T11:31:59;101411.41;;;20.94;66.30
49461;BME280;35355;49.198;-0.368;2023-07-13T11:36:53;101411.78;;;21.01;65.89
49461;BME280;35355;49.198;-0.368;2023-07-13T11:39:32;101416.56;;;21.09;65.85
49461;BME280;35355;49.198;-0.368;2023-07-13T11:42:01;101410.25;;;21.17;66.52
49461;BME280;35355;49.198;-0.368;2023-07-13T11:44:30;101408.34;;;21.27;66.47
49461;BME280;35355;49.198;-0.368;2023-07-13T11:46:57;101414.25;;;21.34;64.63
49461;BME280;35355;49.198;-0.368;2023-07-13T11:49:30;101420.31;;;21.36;64.47
49461;BME280;35355;49.198;-0.368;2023-07-13T11:51:56;101409.06;;;21.41;64.22
49461;BME280;35355;49.198;-0.368;2023-07-13T11:54:32;101398.97;;;21.45;63.79
49461;BME280;35355;49.198;-0.368;2023-07-13T11:57:25;101395.03;;;21.46;63.96
49461;BME280;35355;49.198;-0.368;2023-07-13T11:59:53;101396.25;;;21.54;63.33
49461;BME280;35355;49.198;-0.368;2023-07-13T12:02:29;101398.53;;;21.52;63.82
49461;BME280;35355;49.198;-0.368;2023-07-13T12:04:57;101407.84;;;21.56;63.25
49461;BME280;35355;49.198;-0.368;2023-07-13T12:07:23;101408.19;;;21.54;62.83
49461;BME280;35355;49.198;-0.368;2023-07-13T12:09:49;101407.47;;;21.49;63.06
49461;BME280;35355;49.198;-0.368;2023-07-13T12:12:21;101416.59;;;21.49;62.58
49461;BME280;35355;49.198;-0.368;2023-07-13T12:14:51;101406.47;;;21.45;62.46
49461;BME280;35355;49.198;-0.368;2023-07-13T12:17:20;101409.38;;;21.40;62.11
49461;BME280;35355;49.198;-0.368;2023-07-13T12:19:47;101403.63;;;21.36;61.50
49461;BME280;35355;49.198;-0.368;2023-07-13T12:22:14;101407.56;;;21.35;60.96
49461;BME280;35355;49.198;-0.368;2023-07-13T12:24:40;101399.25;;;21.35;61.79
49461;BME280;35355;49.198;-0.368;2023-07-13T12:27:19;101398.28;;;21.40;62.25
49461;BME280;35355;49.198;-0.368;2023-07-13T12:29:59;101388.50;;;21.42;62.12
49461;BME280;35355;49.198;-0.368;2023-07-13T12:32:30;101392.66;;;21.53;61.93
49461;BME280;35355;49.198;-0.368;2023-07-13T12:35:14;101384.81;;;21.55;62.08
49461;BME280;35355;49.198;-0.368;2023-07-13T12:37:42;101386.00;;;21.63;61.02
49461;BME280;35355;49.198;-0.368;2023-07-13T12:40:21;101390.53;;;21.59;61.61
49461;BME280;35355;49.198;-0.368;2023-07-13T12:42:52;101387.31;;;21.66;61.63
49461;BME280;35355;49.198;-0.368;2023-07-13T12:45:21;101384.22;;;21.67;61.44
49461;BME280;35355;49.198;-0.368;2023-07-13T12:47:58;101382.38;;;21.63;60.87
49461;BME280;35355;49.198;-0.368;2023-07-13T12:50:41;101390.22;;;21.61;61.12
49461;BME280;35355;49.198;-0.368;2023-07-13T12:56:03;101385.03;;;21.68;60.84
49461;BME280;35355;49.198;-0.368;2023-07-13T12:58:32;101386.03;;;21.72;60.05
49461;BME280;35355;49.198;-0.368;2023-07-13T13:01:02;101374.91;;;21.72;59.51
49461;BME280;35355;49.198;-0.368;2023-07-13T13:03:37;101383.09;;;21.77;59.58
49461;BME280;35355;49.198;-0.368;2023-07-13T13:08:41;101378.22;;;21.92;59.60
49461;BME280;35355;49.198;-0.368;2023-07-13T13:11:08;101378.06;;;21.97;58.78
49461;BME280;35355;49.198;-0.368;2023-07-13T13:13:35;101380.22;;;22.00;58.14
49461;BME280;35355;49.198;-0.368;2023-07-13T13:16:14;101383.00;;;22.00;58.43
49461;BME280;35355;49.198;-0.368;2023-07-13T13:18:42;101390.50;;;21.99;57.15
49461;BME280;35355;49.198;-0.368;2023-07-13T13:21:09;101390.00;;;21.97;56.85